Latest Weather Observations for Ulladulla

IDN60801

Issued at 9:23 pm EST Thursday 24 September 2020 (issued every 10 minutes, with the page automatically refreshed every 10 minutes)

About weather observations | Map of weather stations | Latest weather observations for NSW | Other Formats
Station Details ID: 069138 Name: ULLADULLA AWS Lat: -35.36 Lon: 150.48 Height: 35.7 m
Data from the previous 72 hours. | See also: Recent months at Ulladulla
Date/Time
EST
Temp
°C
App
Temp
°C
Dew
Point
°C
Rel
Hum
%
Delta-T
°C
Wind Press
QNH
hPa
Press
MSL
hPa
Rain since
9am
mm
Dir  Spd
km/h
Gust
km/h
Spd
kts
Gust
kts
24/09:00pm 14.1 10.8 2.4 45 5.2 WNW 9 15 5 8 1012.4 1012.4 0.0
24/08:30pm 14.2 10.8 2.1 44 5.3 NNW 9 13 5 7 1012.6 1012.6 0.0
24/08:00pm 14.5 10.7 1.8 42 5.6 NW 11 20 6 11 1012.2 1012.2 0.0
24/07:30pm 14.6 10.3 1.2 40 5.8 NW 13 22 7 12 1011.7 1011.7 0.0
24/07:00pm 14.8 10.5 1.3 40 5.9 NW 13 19 7 10 1011.4 1011.4 0.0
24/06:30pm 15.2 10.1 0.6 37 6.3 NW 17 28 9 15 1010.9 1010.9 0.0
24/06:00pm 15.6 10.9 1.0 37 6.4 NW 15 24 8 13 1010.3 1010.3 0.0
24/05:30pm 16.4 12.2 1.7 37 6.5 NW 13 30 7 16 1010.1 1010.1 0.0
24/05:00pm 17.1 12.2 1.9 36 6.8 WNW 17 30 9 16 1009.9 1009.9 0.0
24/04:30pm 17.7 12.7 1.2 33 7.3 WNW 17 33 9 18 1009.6 1009.6 0.0
24/04:00pm 18.6 13.3 1.6 32 7.7 NW 19 33 10 18 1009.5 1009.5 0.0
24/03:30pm 18.8 12.9 1.8 32 7.7 WNW 22 39 12 21 1009.5 1009.5 0.0
24/03:00pm 19.4 14.3 3.2 34 7.6 W 19 30 10 16 1009.7 1009.7 0.0
24/02:30pm 19.6 14.7 2.0 31 8.1 WNW 17 32 9 17 1009.7 1009.7 0.0
24/02:00pm 19.9 14.4 1.8 30 8.3 W 20 37 11 20 1009.9 1009.9 0.0
24/01:30pm 20.3 15.8 4.4 35 7.7 W 17 32 9 17 1010.0 1010.0 0.0
24/01:00pm 19.2 14.2 3.4 35 7.4 NW 19 30 10 16 1010.4 1010.4 0.0
24/12:30pm 19.4 14.9 4.4 37 7.2 WNW 17 30 9 16 1010.9 1010.9 0.0
24/12:00pm 18.2 14.7 3.3 37 6.9 W 11 24 6 13 1011.2 1011.2 0.0
24/11:30am 18.2 13.5 3.3 37 6.9 WNW 17 28 9 15 1011.8 1011.8 0.0
24/11:00am 17.0 12.3 3.3 40 6.3 WNW 17 33 9 18 1012.0 1012.0 0.0
24/10:30am 18.1 14.4 4.7 41 6.4 WNW 13 22 7 12 1012.2 1012.2 0.0
24/10:00am 17.4 14.1 4.7 43 6.1 W 11 22 6 12 1012.3 1012.3 0.0
24/09:30am 17.2 14.2 5.8 47 5.5 WNW 11 19 6 10 1012.4 1012.4 0.0
24/09:00am 16.7 13.5 5.3 47 5.5 W 11 19 6 10 1012.7 1012.7 0.0
24/08:30am 15.7 11.7 5.0 49 5.1 WNW 15 26 8 14 1012.7 1012.7 0.0
24/08:00am 15.4 12.6 5.3 51 4.8 WNW 9 20 5 11 1012.6 1012.6 0.0
24/07:30am 14.5 11.7 5.3 54 4.3 W 9 20 5 11 1012.3 1012.3 0.0
24/07:00am 13.8 9.8 4.7 54 4.2 W 15 24 8 13 1012.1 1012.1 0.0
24/06:30am 13.1 9.5 4.8 57 3.8 W 13 26 7 14 1012.0 1012.0 0.0
24/06:00am 12.0 8.7 4.5 60 3.4 W 11 20 6 11 1011.6 1011.6 0.0
24/05:30am 12.3 8.3 4.8 60 3.4 W 15 28 8 15 1011.3 1011.3 0.0
24/05:00am 11.7 8.4 4.7 62 3.2 W 11 20 6 11 1011.1 1011.1 0.0
24/04:30am 11.5 8.9 4.3 61 3.2 WSW 7 13 4 7 1010.9 1010.9 0.0
24/04:00am 12.0 9.1 4.5 60 3.4 W 9 15 5 8 1010.9 1010.9 0.0
24/03:30am 12.1 9.1 4.3 59 3.5 WNW 9 19 5 10 1011.0 1011.0 0.0
24/03:00am 12.4 9.5 4.4 58 3.6 WNW 9 17 5 9 1010.8 1010.8 0.0
24/02:30am 12.5 9.6 4.5 58 3.6 WNW 9 19 5 10 1010.8 1010.8 0.0
24/02:00am 12.5 9.2 4.7 59 3.6 W 11 20 6 11 1010.9 1010.9 0.0
24/01:30am 12.4 8.8 4.9 60 3.4 W 13 26 7 14 1011.3 1011.3 0.0
24/01:00am 12.2 9.8 4.4 59 3.5 W 6 13 3 7 1011.7 1011.7 0.0
24/12:30am 12.4 9.8 4.4 58 3.6 W 7 22 4 12 1012.0 1012.0 0.0
24/12:00am 12.9 10.3 4.3 56 3.9 W 7 15 4 8 1012.3 1012.3 0.0
 
Date/Time
EST
Temp
°C
App
Temp
°C
Dew
Point
°C
Rel
Hum
%
Delta-T
°C
Wind Press
QNH
hPa
Press
MSL
hPa
Rain since
9am
mm
Dir  Spd
km/h
Gust
km/h
Spd
kts
Gust
kts
23/11:30pm 13.2 9.5 4.6 56 4.0 WNW 13 24 7 13 1012.3 1012.3 0.0
23/11:00pm 13.1 9.5 4.8 57 3.8 WNW 13 22 7 12 1012.4 1012.4 0.0
23/10:30pm 12.9 8.8 4.6 57 3.8 NW 15 24 8 13 1012.4 1012.4 0.0
23/10:00pm 13.3 10.4 4.7 56 4.0 WNW 9 19 5 10 1012.8 1012.8 0.0
23/09:30pm 13.6 9.9 4.5 54 4.2 WNW 13 26 7 14 1013.0 1013.0 0.0
23/09:00pm 14.0 9.5 4.3 52 4.5 WNW 17 30 9 16 1012.9 1012.9 0.0
23/08:30pm 14.1 10.4 4.7 53 4.4 WNW 13 22 7 12 1012.9 1012.9 0.0
23/08:00pm 14.6 10.5 4.3 50 4.8 WNW 15 26 8 14 1012.3 1012.3 0.0
23/07:30pm 14.9 10.0 4.3 49 4.9 WNW 19 28 10 15 1012.1 1012.1 0.0
23/07:00pm 15.3 12.0 4.4 48 5.1 WNW 11 17 6 9 1011.9 1011.9 0.0
23/06:30pm 15.4 12.0 4.2 47 5.2 WNW 11 20 6 11 1011.6 1011.6 0.0
23/06:00pm 16.0 11.4 3.8 44 5.6 WNW 17 30 9 16 1011.0 1011.0 0.0
23/05:30pm 16.8 11.7 4.2 43 5.9 NW 20 30 11 16 1010.3 1010.3 0.0
23/05:00pm 17.6 13.5 4.2 41 6.3 WNW 15 26 8 14 1009.7 1009.7 0.0
23/04:30pm 18.2 14.0 4.0 39 6.7 W 15 37 8 20 1009.5 1009.5 0.0
23/04:00pm 19.1 14.0 3.3 35 7.4 WNW 19 37 10 20 1009.2 1009.2 0.0
23/03:30pm 19.7 14.4 3.0 33 7.8 W 20 37 11 20 1009.3 1009.3 0.0
23/03:00pm 19.4 13.8 3.2 34 7.6 WNW 22 44 12 24 1009.1 1009.1 0.0
23/02:30pm 19.7 14.4 3.0 33 7.8 WNW 20 41 11 22 1009.5 1009.5 0.0
23/02:00pm 20.7 15.8 3.9 33 8.1 W 19 33 10 18 1009.5 1009.5 0.0
23/01:30pm 20.4 15.8 3.6 33 8.0 W 17 32 9 17 1009.4 1009.4 0.0
23/01:00pm 20.4 14.3 2.7 31 8.3 WNW 24 41 13 22 1009.5 1009.5 0.0
23/12:30pm 20.7 15.1 3.4 32 8.2 W 22 39 12 21 1009.7 1009.7 0.0
23/12:00pm 20.4 14.4 3.2 32 8.1 WNW 24 41 13 22 1009.6 1009.6 0.0
23/11:30am 20.6 14.6 3.3 32 8.2 WNW 24 50 13 27 1009.8 1009.8 0.0
23/11:00am 20.0 16.1 3.3 33 7.9 WNW 13 22 7 12 1010.2 1010.2 0.0
23/10:30am 19.9 13.9 3.2 33 7.9 W 24 39 13 21 1010.3 1010.3 0.0
23/10:00am 19.8 14.5 3.1 33 7.9 W 20 44 11 24 1010.4 1010.4 0.0
23/09:30am 19.3 15.0 3.5 35 7.5 W 15 33 8 18 1010.3 1010.3 0.0
23/09:00am 18.2 13.5 2.9 36 7.1 W 17 33 9 18 1010.5 1010.5 0.0
23/08:30am 18.5 13.9 3.9 38 6.9 W 17 43 9 23 1010.8 1010.8 0.0
23/08:00am 17.7 14.8 4.6 42 6.2 WNW 9 19 5 10 1010.7 1010.7 0.0
23/07:30am 16.8 13.4 4.2 43 5.9 W 11 20 6 11 1010.8 1010.8 0.0
23/07:00am 16.2 13.7 3.9 44 5.7 W 6 11 3 6 1010.6 1010.6 0.0
23/06:30am 15.6 12.3 4.3 47 5.3 W 11 20 6 11 1010.4 1010.4 0.0
23/06:00am 14.6 11.2 4.0 49 4.9 W 11 20 6 11 1010.4 1010.4 0.0
23/05:30am 15.0 11.1 3.5 46 5.2 W 13 20 7 11 1010.0 1010.0 0.0
23/05:00am 15.5 11.9 3.0 43 5.7 W 11 17 6 9 1009.8 1009.8 0.0
23/04:30am 15.2 11.9 2.4 42 5.7 W 9 17 5 9 1009.8 1009.8 0.0
23/04:00am 15.3 12.8 1.8 40 6.0 WSW 4 9 2 5 1009.5 1009.5 0.0
23/03:30am 15.5 12.6 1.6 39 6.1 SW 6 11 3 6 1009.7 1009.7 0.0
23/03:00am 15.5 12.6 1.6 39 6.1 SW 6 19 3 10 1010.0 1010.0 0.0
23/02:30am 16.4 14.0 2.1 38 6.4 NW 4 13 2 7 1010.3 1010.3 0.0
23/02:00am 15.9 13.0 1.6 38 6.3 SSW 6 11 3 6 1010.3 1010.3 0.0
23/01:30am 16.2 13.2 0.7 35 6.7 SSW 6 17 3 9 1010.3 1010.3 0.0
23/01:00am 16.3 13.0 0.4 34 6.9 SSW 7 19 4 10 1010.3 1010.3 0.0
23/12:30am 16.4 13.2 -0.3 32 7.1 SSW 6 15 3 8 1010.3 1010.3 0.0
23/12:00am 17.3 13.5 -0.4 30 7.6 S 9 24 5 13 1010.3 1010.3 0.0
 
Date/Time
EST
Temp
°C
App
Temp
°C
Dew
Point
°C
Rel
Hum
%
Delta-T
°C
Wind Press
QNH
hPa
Press
MSL
hPa
Rain since
9am
mm
Dir  Spd
km/h
Gust
km/h
Spd
kts
Gust
kts
22/11:30pm 17.3 14.1 -0.4 30 7.6 SE 6 15 3 8 1010.1 1010.1 0.0
22/11:00pm 17.8 13.0 0.5 31 7.6 WSW 15 28 8 15 1010.0 1010.0 0.0
22/10:30pm 17.7 14.7 1.7 34 7.2 SW 7 28 4 15 1009.8 1009.8 0.0
22/10:00pm 18.7 15.1 2.9 35 7.3 WNW 11 30 6 16 1009.9 1009.9 0.0
22/09:30pm 18.8 14.5 3.0 35 7.3 NW 15 30 8 16 1009.6 1009.6 0.0
22/09:00pm 19.0 15.8 3.2 35 7.4 NW 9 22 5 12 1009.6 1009.6 0.0
22/08:30pm 18.9 15.9 1.9 32 7.7 NNW 7 17 4 9 1009.5 1009.5 0.0
22/08:00pm 19.6 15.0 1.6 30 8.2 WNW 15 33 8 18 1009.4 1009.4 0.0
22/07:30pm 19.6 14.6 1.6 30 8.2 NW 17 32 9 17 1009.2 1009.2 0.0
22/07:00pm 19.7 15.6 2.1 31 8.1 WNW 13 22 7 12 1008.6 1008.6 0.0
22/06:30pm 20.2 15.4 2.5 31 8.2 WNW 17 32 9 17 1008.0 1008.0 0.0
22/06:00pm 20.5 15.8 3.3 32 8.2 NW 17 35 9 19 1007.9 1007.9 0.0
22/05:30pm 20.9 16.3 3.6 32 8.3 NW 17 32 9 17 1007.7 1007.7 0.0
22/05:16pm 21.5 15.1 3.2 30 8.7 NW 26 54 14 29 1007.5 1007.5 0.0
22/05:00pm 21.8 16.9 3.9 31 8.7 WNW 19 39 10 21 1007.1 1007.0 0.0
22/04:30pm 22.5 17.4 4.1 30 9.0 NW 20 43 11 23 1006.7 1006.6 0.0
22/04:00pm 23.0 18.5 4.0 29 9.3 NW 17 32 9 17 1006.4 1006.3 0.0
22/03:39pm 23.0 16.1 2.5 26 9.7 NW 28 59 15 32 1006.5 1006.4 0.0
22/03:30pm 23.0 16.5 2.5 26 9.7 NW 26 44 14 24 1006.3 1006.2 0.0
22/03:01pm 23.5 16.7 2.9 26 9.9 WNW 28 54 15 29 1006.5 1006.4 0.0
22/03:00pm 23.6 17.1 2.4 25 10.1 WNW 26 46 14 25 1006.6 1006.5 0.0
22/02:30pm 24.4 19.2 2.5 24 10.5 WNW 19 33 10 18 1006.5 1006.4 0.0
22/02:00pm 24.3 18.1 1.9 23 10.7 NW 24 44 13 24 1006.3 1006.2 0.0
22/01:30pm 24.9 20.2 3.0 24 10.7 WNW 17 30 9 16 1006.4 1006.3 0.0
22/01:00pm 24.7 19.4 1.6 22 11.0 W 19 32 10 17 1006.7 1006.6 0.0
22/12:30pm 24.6 18.1 0.2 20 11.2 WNW 24 44 13 24 1007.1 1007.0 0.0
22/12:00pm 24.2 18.6 1.2 22 10.8 WNW 20 39 11 21 1007.6 1007.6 0.0
22/11:46am 23.8 18.7 0.8 22 10.7 WNW 17 39 9 21 1007.6 1007.6 0.0
22/11:30am 20.5 18.9 10.3 52 5.5 ENE 9 19 5 10 1007.8 1007.8 0.0
22/11:00am 23.6 18.2 1.3 23 10.4 WNW 19 30 10 16 1008.2 1008.2 0.0
22/10:30am 21.8 18.3 3.5 30 8.8 SE 11 33 6 18 1008.6 1008.6 0.0
22/10:00am 20.1 18.3 5.4 38 7.3 SE 4 9 2 5 1008.7 1008.7 0.0
22/09:30am 20.1 17.8 4.6 36 7.5 SE 6 9 3 5 1009.0 1009.0 0.0
22/09:00am 19.6 17.3 4.9 38 7.2 E 6 7 3 4 1009.2 1009.2 1.2
22/08:30am 19.8 17.5 5.5 39 7.0 W 7 13 4 7 1009.2 1009.2 1.2
22/08:00am 18.9 15.8 5.7 42 6.5 W 11 20 6 11 1009.2 1009.2 1.2
22/07:30am 17.8 15.1 5.4 44 6.0 WSW 9 17 5 9 1008.9 1008.9 1.2
22/07:00am 17.4 12.7 5.0 44 6.0 W 19 32 10 17 1008.3 1008.3 1.2
22/06:30am 16.9 12.0 4.9 45 5.7 W 20 33 11 18 1007.9 1007.9 1.2
22/06:00am 16.5 12.2 5.2 47 5.4 W 17 30 9 16 1007.6 1007.6 1.2
22/05:30am 16.9 13.8 5.5 47 5.5 W 11 22 6 12 1007.4 1007.4 1.2
22/05:00am 17.4 14.4 7.5 52 5.0 WSW 13 24 7 13 1006.9 1006.8 1.2
22/04:30am 18.3 16.2 8.3 52 5.1 W 9 20 5 11 1006.2 1006.1 1.2
22/04:00am 18.4 17.3 10.8 61 4.1 WNW 7 13 4 7 1005.9 1005.8 1.2
22/03:30am 18.4 18.7 12.2 67 3.4 WNW 2 9 1 5 1005.5 1005.4 1.2
22/03:00am 17.8 17.6 12.9 73 2.8 WSW 6 9 3 5 1005.6 1005.5 1.2
22/02:30am 18.8 19.2 13.6 72 3.0 WNW 4 7 2 4 1005.2 1005.1 1.2
22/02:00am 19.2 19.0 12.9 67 3.6 S 6 7 3 4 1005.6 1005.5 1.2
22/01:30am 21.0 20.6 14.2 65 4.0 NNW 9 19 5 10 1005.6 1005.5 1.2
22/01:00am 19.8 19.7 14.0 69 3.4 NW 7 13 4 7 1005.7 1005.6 1.2
22/12:30am 17.8 18.9 13.5 76 2.4 CALM 0 4 0 2 1005.5 1005.4 1.2
22/12:00am 17.8 18.1 13.5 76 2.4 NNE 4 7 2 4 1005.2 1005.1 1.2
 
Date/Time
EST
Temp
°C
App
Temp
°C
Dew
Point
°C
Rel
Hum
%
Delta-T
°C
Wind Press
QNH
hPa
Press
MSL
hPa
Rain since
9am
mm
Dir  Spd
km/h
Gust
km/h
Spd
kts
Gust
kts
21/11:30pm 17.9 18.3 13.8 77 2.3 N 4 9 2 5 1004.9 1004.8 1.2
21/11:00pm 17.4 17.6 14.3 82 1.8 N 6 9 3 5 1005.4 1005.3 1.2
21/10:30pm 17.3 17.8 14.0 81 1.9 NNE 4 6 2 3 1005.5 1005.4 1.2
21/10:00pm 17.8 17.8 14.1 79 2.1 NE 7 9 4 5 1005.4 1005.3 1.2
21/09:30pm 18.5 19.1 14.2 76 2.5 N 4 9 2 5 1006.3 1006.2 1.2

Other formats

Comma delimited format used in spreadsheet applications
http://www.bom.gov.au/fwo/IDN60801/IDN60801.94938.axf

JavaScript Object Notation format (JSON) in row-major order
http://www.bom.gov.au/fwo/IDN60801/IDN60801.94938.json

Data quality

Most of these data are generated automatically and are frequently updated. Quality checks on data are not normally performed. It is possible for incorrect values to appear. Refer to information at About Latest Weather Observations and please check the disclaimer before using these data.